createdAt,value
2018-05-14T00:00:04.519Z,14.80
2018-05-14T00:02:32.110Z,14.80
2018-05-14T00:04:59.723Z,14.80
2018-05-14T00:07:27.306Z,14.70
2018-05-14T00:09:54.924Z,14.70
2018-05-14T00:12:22.506Z,14.70
2018-05-14T00:14:50.121Z,14.70
2018-05-14T00:17:18.470Z,14.60
2018-05-14T00:19:46.032Z,14.60
2018-05-14T00:22:13.624Z,14.60
2018-05-14T00:24:41.999Z,14.60
2018-05-14T00:27:09.581Z,14.60
2018-05-14T00:29:37.190Z,14.60
2018-05-14T00:32:04.799Z,14.50
2018-05-14T00:34:33.147Z,14.50
2018-05-14T00:37:00.745Z,14.50
2018-05-14T00:39:28.334Z,14.50
2018-05-14T00:41:55.927Z,14.50
2018-05-14T00:44:23.493Z,14.50
2018-05-14T00:46:51.154Z,14.50
2018-05-14T00:49:18.761Z,14.40
2018-05-14T00:51:46.327Z,14.40
2018-05-14T00:54:13.915Z,14.40
2018-05-14T00:56:41.470Z,14.40
2018-05-14T00:59:09.081Z,14.40
2018-05-14T01:01:37.406Z,14.40
2018-05-14T01:04:04.986Z,14.30
2018-05-14T01:06:32.561Z,14.40
2018-05-14T01:09:00.951Z,14.30
2018-05-14T01:11:29.302Z,14.30
2018-05-14T01:13:56.914Z,14.30
2018-05-14T01:16:24.505Z,14.30
2018-05-14T01:18:52.086Z,14.30
2018-05-14T01:21:19.693Z,14.30
2018-05-14T01:23:47.278Z,14.30
2018-05-14T01:26:14.858Z,14.20
2018-05-14T01:28:42.438Z,14.20
2018-05-14T01:31:10.023Z,14.20
2018-05-14T01:33:38.399Z,14.20
2018-05-14T01:36:06.774Z,14.20
2018-05-14T01:38:34.354Z,14.10
2018-05-14T01:41:01.970Z,14.20
2018-05-14T01:43:29.555Z,14.10
2018-05-14T01:45:57.906Z,14.20
2018-05-14T01:48:25.487Z,14.20
2018-05-14T01:50:53.094Z,14.20
2018-05-14T01:53:20.681Z,14.20
2018-05-14T01:55:48.271Z,14.20
2018-05-14T01:58:15.874Z,14.20
2018-05-14T02:00:43.429Z,14.10
2018-05-14T02:03:10.990Z,14.10
2018-05-14T02:05:38.576Z,14.10
2018-05-14T02:08:06.162Z,14.10
2018-05-14T02:10:33.750Z,14.10
2018-05-14T02:13:02.102Z,14.00
2018-05-14T02:15:29.702Z,14.00
2018-05-14T02:17:57.289Z,14.00
2018-05-14T02:20:24.858Z,14.00
2018-05-14T02:22:52.475Z,14.00
2018-05-14T02:25:20.817Z,13.90
2018-05-14T02:27:48.402Z,13.80
2018-05-14T02:30:15.967Z,13.90
2018-05-14T02:32:44.317Z,13.80
2018-05-14T02:35:11.895Z,13.80
2018-05-14T02:37:39.483Z,13.80
2018-05-14T02:40:07.838Z,13.90
2018-05-14T02:42:35.426Z,13.80
2018-05-14T02:45:03.006Z,13.90
2018-05-14T02:47:30.590Z,13.90
2018-05-14T02:49:58.198Z,13.80
2018-05-14T02:52:26.549Z,13.90
2018-05-14T02:54:54.158Z,13.80
2018-05-14T02:57:21.715Z,13.90
2018-05-14T02:59:49.326Z,13.80
2018-05-14T03:02:16.911Z,13.90
2018-05-14T03:04:44.587Z,13.80
2018-05-14T03:07:12.074Z,13.90
2018-05-14T03:09:39.661Z,13.90
2018-05-14T03:12:07.243Z,13.90
2018-05-14T03:14:34.830Z,13.90
2018-05-14T03:17:03.211Z,13.90
2018-05-14T03:19:31.534Z,13.90
2018-05-14T03:21:59.155Z,13.90
2018-05-14T03:24:27.478Z,14.00
2018-05-14T03:26:55.058Z,13.90
2018-05-14T03:29:22.647Z,13.90
2018-05-14T03:31:50.203Z,13.90
2018-05-14T03:34:17.787Z,13.90
2018-05-14T03:36:45.375Z,13.90
2018-05-14T03:39:13.729Z,13.90
2018-05-14T03:41:41.340Z,13.90
2018-05-14T03:44:08.934Z,13.90
2018-05-14T03:46:36.541Z,13.90
2018-05-14T03:49:04.122Z,13.90
2018-05-14T03:51:31.702Z,13.90
2018-05-14T03:53:59.326Z,13.90
2018-05-14T03:56:26.911Z,13.90
2018-05-14T03:59:06.314Z,13.90
2018-05-14T04:01:45.858Z,13.90
2018-05-14T04:04:25.162Z,13.90
2018-05-14T04:06:52.770Z,13.90
2018-05-14T04:09:20.356Z,13.90
2018-05-14T04:11:47.958Z,13.80
2018-05-14T04:14:16.282Z,13.90
2018-05-14T04:16:43.838Z,13.80
2018-05-14T04:19:12.294Z,13.90
2018-05-14T04:21:40.638Z,13.90
2018-05-14T04:24:08.251Z,13.90
2018-05-14T04:26:35.834Z,13.90
2018-05-14T04:29:03.415Z,13.90
2018-05-14T04:31:31.766Z,13.90
2018-05-14T04:33:59.350Z,13.90
2018-05-14T04:36:27.731Z,13.90
2018-05-14T04:38:56.085Z,13.90
2018-05-14T04:41:23.665Z,13.80
2018-05-14T04:43:52.010Z,13.90
2018-05-14T04:46:19.598Z,13.90
2018-05-14T04:48:47.987Z,13.90
2018-05-14T04:51:16.366Z,13.90
2018-05-14T04:53:44.750Z,13.90
2018-05-14T04:56:13.102Z,13.90
2018-05-14T04:58:40.718Z,13.90
2018-05-14T05:01:08.288Z,13.90
2018-05-14T05:03:35.898Z,13.90
2018-05-14T05:06:03.517Z,14.00
2018-05-14T05:08:31.074Z,14.00
2018-05-14T05:10:58.662Z,14.00
2018-05-14T05:13:26.218Z,14.00
2018-05-14T05:15:53.803Z,14.00
2018-05-14T05:18:21.387Z,14.00
2018-05-14T05:20:49.082Z,14.00
2018-05-14T05:23:16.650Z,14.00
2018-05-14T05:25:45.000Z,14.00
2018-05-14T05:28:13.407Z,14.00
2018-05-14T05:30:40.967Z,14.00
2018-05-14T05:33:08.585Z,14.00
2018-05-14T05:35:36.910Z,14.00
2018-05-14T05:38:04.496Z,14.00
2018-05-14T05:40:32.088Z,14.00
2018-05-14T05:43:00.441Z,14.00
2018-05-14T05:45:28.034Z,14.00
2018-05-14T05:47:56.358Z,14.00
2018-05-14T05:50:23.922Z,14.00
2018-05-14T05:52:51.538Z,14.00
2018-05-14T05:55:19.913Z,14.10
2018-05-14T05:57:48.321Z,14.20
2018-05-14T06:00:15.890Z,14.10
2018-05-14T06:02:43.483Z,14.20
2018-05-14T06:05:11.104Z,14.20
2018-05-14T06:07:38.695Z,14.20
2018-05-14T06:10:06.286Z,14.30
2018-05-14T06:12:33.878Z,14.30
2018-05-14T06:15:01.443Z,14.30
2018-05-14T06:17:29.035Z,14.40
2018-05-14T06:19:56.635Z,14.40
2018-05-14T06:22:25.056Z,14.40
2018-05-14T06:24:52.544Z,14.30
2018-05-14T06:27:20.159Z,14.40
2018-05-14T06:29:47.718Z,14.50
2018-05-14T06:32:15.277Z,14.50
2018-05-14T06:34:42.870Z,14.50
2018-05-14T06:37:10.455Z,14.50
2018-05-14T06:39:38.091Z,14.50
2018-05-14T06:42:05.659Z,14.50
2018-05-14T06:44:33.223Z,14.60
2018-05-14T06:47:00.846Z,14.60
2018-05-14T06:49:28.423Z,14.60
2018-05-14T06:51:56.042Z,14.60
2018-05-14T06:54:24.398Z,14.70
2018-05-14T06:56:51.987Z,14.70
2018-05-14T06:59:20.343Z,14.80
2018-05-14T07:01:47.954Z,14.70
2018-05-14T07:04:15.538Z,14.80
2018-05-14T07:06:44.084Z,14.90
2018-05-14T07:09:12.261Z,14.90
2018-05-14T07:11:39.848Z,14.90
2018-05-14T07:14:07.455Z,15.00
2018-05-14T07:16:35.048Z,14.90
2018-05-14T07:19:02.684Z,15.00
2018-05-14T07:21:31.035Z,15.10
2018-05-14T07:23:58.634Z,15.00
2018-05-14T07:26:26.231Z,15.10
2018-05-14T07:28:53.850Z,15.10
2018-05-14T07:31:22.409Z,15.20
2018-05-14T07:33:49.979Z,15.20
2018-05-14T07:36:17.601Z,15.20
2018-05-14T07:38:45.279Z,15.30
2018-05-14T07:41:12.849Z,15.30
2018-05-14T07:43:40.497Z,15.30
2018-05-14T07:46:08.330Z,15.30
2018-05-14T07:48:35.905Z,15.40
2018-05-14T07:51:03.670Z,15.30
2018-05-14T07:53:31.267Z,15.30
2018-05-14T07:55:58.824Z,15.40
2018-05-14T07:58:27.266Z,15.40
2018-05-14T08:00:54.851Z,15.40
2018-05-14T08:03:22.442Z,15.40
2018-05-14T08:05:50.125Z,15.50
2018-05-14T08:08:17.672Z,15.50
2018-05-14T08:10:45.424Z,15.50
2018-05-14T08:13:13.038Z,15.50
2018-05-14T08:15:40.622Z,15.50
2018-05-14T08:18:08.187Z,15.50
2018-05-14T08:20:35.802Z,15.50
2018-05-14T08:23:04.182Z,15.60
2018-05-14T08:25:32.621Z,15.60
2018-05-14T08:28:00.315Z,15.60
2018-05-14T08:30:27.904Z,15.60
2018-05-14T08:32:55.569Z,15.60
2018-05-14T08:35:23.145Z,15.60
2018-05-14T08:37:51.519Z,15.60
2018-05-14T08:40:19.871Z,15.60
2018-05-14T08:42:47.436Z,15.50
2018-05-14T08:45:15.083Z,15.60
2018-05-14T08:47:42.637Z,15.60
2018-05-14T08:50:10.254Z,15.50
2018-05-14T08:52:38.576Z,15.50
2018-05-14T08:55:06.206Z,15.50
2018-05-14T08:57:33.882Z,15.50
2018-05-14T09:00:01.472Z,15.50
2018-05-14T09:02:29.778Z,15.50
2018-05-14T09:04:57.358Z,15.40
2018-05-14T09:07:24.911Z,15.40
2018-05-14T09:09:52.518Z,15.40
2018-05-14T09:12:20.903Z,15.50
2018-05-14T09:14:48.481Z,15.40
2018-05-14T09:17:16.107Z,15.40
2018-05-14T09:19:44.466Z,15.50
2018-05-14T09:22:12.055Z,15.40
2018-05-14T09:24:40.456Z,15.40
2018-05-14T09:27:08.062Z,15.40
2018-05-14T09:29:35.650Z,15.40
2018-05-14T09:32:03.233Z,15.40
2018-05-14T09:34:30.814Z,15.40
2018-05-14T09:36:58.398Z,15.40
2018-05-14T09:39:26.758Z,15.50
2018-05-14T09:41:54.375Z,15.40
2018-05-14T09:44:21.968Z,15.50
2018-05-14T09:46:49.586Z,15.40
2018-05-14T09:49:17.151Z,15.40
2018-05-14T09:51:44.739Z,15.50
2018-05-14T09:54:13.058Z,15.50
2018-05-14T09:56:40.681Z,15.50
2018-05-14T09:59:09.715Z,15.50
2018-05-14T10:01:37.274Z,15.50
2018-05-14T10:04:04.870Z,15.50
2018-05-14T10:06:33.222Z,15.60
2018-05-14T10:09:00.815Z,15.50
2018-05-14T10:11:29.169Z,15.50
2018-05-14T10:13:56.794Z,15.50
2018-05-14T10:16:24.387Z,15.50
2018-05-14T10:18:52.036Z,15.50
2018-05-14T10:21:19.688Z,15.60
2018-05-14T10:23:47.277Z,15.50
2018-05-14T10:26:14.890Z,15.50
2018-05-14T10:28:42.451Z,15.60
2018-05-14T10:31:10.071Z,15.50
2018-05-14T10:33:37.634Z,15.60
2018-05-14T10:36:05.218Z,15.50
2018-05-14T10:38:33.602Z,15.50
2018-05-14T10:41:01.939Z,15.50
2018-05-14T10:43:29.556Z,15.50
2018-05-14T10:45:57.961Z,15.50
2018-05-14T10:48:25.551Z,15.50
2018-05-14T10:50:53.126Z,15.50
2018-05-14T10:53:21.596Z,15.60
2018-05-14T10:55:49.164Z,15.60
2018-05-14T10:58:16.774Z,15.50
2018-05-14T11:00:44.375Z,15.60
2018-05-14T11:03:11.998Z,15.60
2018-05-14T11:05:39.566Z,15.60
2018-05-14T11:08:07.176Z,15.60
2018-05-14T11:10:34.861Z,15.60
2018-05-14T11:13:03.139Z,15.60
2018-05-14T11:15:30.730Z,15.50
2018-05-14T11:17:58.322Z,15.60
2018-05-14T11:20:25.955Z,15.60
2018-05-14T11:22:54.286Z,15.60
2018-05-14T11:25:21.850Z,15.60
2018-05-14T11:27:49.471Z,15.70
2018-05-14T11:30:17.123Z,15.70
2018-05-14T11:32:45.502Z,15.70
2018-05-14T11:35:13.863Z,15.70
2018-05-14T11:37:41.482Z,15.70
2018-05-14T11:40:09.095Z,15.70
2018-05-14T11:42:36.693Z,15.70
2018-05-14T11:45:04.287Z,15.70
2018-05-14T11:47:31.886Z,15.70
2018-05-14T11:50:00.238Z,15.70
2018-05-14T11:52:27.879Z,15.70
2018-05-14T11:54:55.463Z,15.70
2018-05-14T11:57:23.062Z,15.70
2018-05-14T11:59:51.427Z,15.70
2018-05-14T12:02:19.806Z,15.70
2018-05-14T12:04:48.190Z,15.70
2018-05-14T12:07:16.545Z,15.70
2018-05-14T12:09:44.162Z,15.70
2018-05-14T12:12:11.849Z,15.70
2018-05-14T12:14:40.138Z,15.70
2018-05-14T12:17:07.713Z,15.70
2018-05-14T12:19:35.282Z,15.70
2018-05-14T12:22:03.663Z,15.80
2018-05-14T12:24:31.999Z,15.70
2018-05-14T12:26:59.597Z,15.70
2018-05-14T12:29:27.188Z,15.80
2018-05-14T12:31:54.780Z,15.80
2018-05-14T12:34:23.137Z,15.80
2018-05-14T12:36:50.734Z,15.70
2018-05-14T12:39:18.354Z,15.70
2018-05-14T12:41:45.923Z,15.70
2018-05-14T12:44:14.283Z,15.70
2018-05-14T12:46:41.850Z,15.70
2018-05-14T12:49:09.466Z,15.70
2018-05-14T12:51:37.030Z,15.70
2018-05-14T12:54:04.599Z,15.80
2018-05-14T12:56:32.202Z,15.70
2018-05-14T12:58:59.796Z,15.80
2018-05-14T13:01:27.376Z,15.80
2018-05-14T13:03:55.286Z,15.80
2018-05-14T13:06:22.880Z,15.90
2018-05-14T13:08:50.470Z,15.90
2018-05-14T13:11:18.057Z,15.90
2018-05-14T13:13:45.655Z,16.00
2018-05-14T13:16:14.047Z,16.00
2018-05-14T13:18:41.651Z,16.00
2018-05-14T13:21:09.226Z,16.00
2018-05-14T13:23:37.615Z,16.00
2018-05-14T13:26:05.982Z,16.10
2018-05-14T13:28:33.595Z,16.00
2018-05-14T13:31:01.170Z,16.10
2018-05-14T13:33:28.767Z,16.10
2018-05-14T13:35:57.130Z,16.10
2018-05-14T13:38:24.702Z,16.10
2018-05-14T13:40:52.325Z,16.20
2018-05-14T13:43:19.922Z,16.20
2018-05-14T13:45:47.542Z,16.20
2018-05-14T13:48:15.105Z,16.20
2018-05-14T13:50:42.670Z,16.20
2018-05-14T13:53:10.263Z,16.30
2018-05-14T13:55:37.827Z,16.20
2018-05-14T13:58:05.517Z,16.30
2018-05-14T14:00:33.069Z,16.30
2018-05-14T14:03:00.713Z,16.30
2018-05-14T14:05:28.278Z,16.30
2018-05-14T14:07:56.633Z,16.30
2018-05-14T14:10:24.198Z,16.30
2018-05-14T14:12:51.762Z,16.30
2018-05-14T14:15:19.410Z,16.30
2018-05-14T14:17:46.974Z,16.30
2018-05-14T14:20:14.538Z,16.30
2018-05-14T14:22:42.158Z,16.30
2018-05-14T14:25:09.757Z,16.20
2018-05-14T14:27:37.323Z,16.30
2018-05-14T14:30:04.999Z,16.30
2018-05-14T14:32:32.570Z,16.30
2018-05-14T14:35:00.927Z,16.30
2018-05-14T14:37:28.518Z,16.30
2018-05-14T14:39:56.874Z,16.30
2018-05-14T14:42:24.462Z,16.30
2018-05-14T14:44:52.820Z,16.30
2018-05-14T14:47:20.438Z,16.30
2018-05-14T14:49:48.037Z,16.30
2018-05-14T14:52:15.606Z,16.30
2018-05-14T14:54:43.226Z,16.40
2018-05-14T14:57:10.815Z,16.40
2018-05-14T14:59:38.403Z,16.40
2018-05-14T15:02:06.779Z,16.40
2018-05-14T15:04:35.140Z,16.40
2018-05-14T15:07:02.805Z,16.40
2018-05-14T15:09:30.368Z,16.30
2018-05-14T15:11:58.740Z,16.40
2018-05-14T15:14:26.326Z,16.40
2018-05-14T15:16:54.654Z,16.50
2018-05-14T15:19:22.250Z,16.40
2018-05-14T15:21:49.815Z,16.50
2018-05-14T15:24:18.170Z,16.50
2018-05-14T15:26:45.769Z,16.50
2018-05-14T15:29:14.154Z,16.50
2018-05-14T15:31:41.747Z,16.50
2018-05-14T15:34:09.338Z,16.50
2018-05-14T15:36:36.934Z,16.50
2018-05-14T15:39:05.304Z,16.50
2018-05-14T15:41:33.703Z,16.50
2018-05-14T15:44:01.274Z,16.50
2018-05-14T15:46:28.867Z,16.40
2018-05-14T15:48:56.473Z,16.40
2018-05-14T15:51:24.808Z,16.40
2018-05-14T15:53:52.379Z,16.40
2018-05-14T15:56:20.011Z,16.40
2018-05-14T15:58:47.634Z,16.40
2018-05-14T16:01:15.990Z,16.40
2018-05-14T16:03:43.554Z,16.30
2018-05-14T16:06:11.142Z,16.40
2018-05-14T16:08:39.503Z,16.40
2018-05-14T16:11:07.958Z,16.40
2018-05-14T16:13:35.522Z,16.30
2018-05-14T16:16:03.855Z,16.40
2018-05-14T16:18:31.449Z,16.30
2018-05-14T16:20:59.038Z,16.40
2018-05-14T16:23:27.453Z,16.40
2018-05-14T16:25:55.997Z,16.40
2018-05-14T16:28:24.465Z,16.40
2018-05-14T16:30:52.030Z,16.40
2018-05-14T16:33:19.728Z,16.40
2018-05-14T16:35:47.240Z,16.50
2018-05-14T16:38:14.855Z,16.40
2018-05-14T16:40:42.465Z,16.50
2018-05-14T16:43:10.027Z,16.40
2018-05-14T16:45:37.610Z,16.40
2018-05-14T16:48:05.938Z,16.40
2018-05-14T16:50:33.567Z,16.30
2018-05-14T16:53:01.154Z,16.40
2018-05-14T16:55:28.781Z,16.30
2018-05-14T16:57:57.230Z,16.40
2018-05-14T17:00:24.818Z,16.30
2018-05-14T17:02:58.561Z,16.30
2018-05-14T17:05:27.447Z,16.30
2018-05-14T17:07:55.043Z,16.30
2018-05-14T17:10:23.440Z,16.20
2018-05-14T17:12:51.034Z,16.20
2018-05-14T17:15:18.637Z,16.20
2018-05-14T17:17:46.199Z,16.20
2018-05-14T17:20:13.802Z,16.20
2018-05-14T17:22:41.386Z,16.20
2018-05-14T17:25:08.986Z,16.20
2018-05-14T17:27:36.543Z,16.20
2018-05-14T17:30:04.139Z,16.20
2018-05-14T17:32:31.774Z,16.20
2018-05-14T17:34:59.416Z,16.10
2018-05-14T17:37:27.770Z,16.20
2018-05-14T17:39:55.355Z,16.20
2018-05-14T17:42:22.981Z,16.20
2018-05-14T17:44:50.565Z,16.20
2018-05-14T17:47:18.154Z,16.20
2018-05-14T17:49:45.743Z,16.20
2018-05-14T17:52:14.096Z,16.10
2018-05-14T17:54:41.678Z,16.10
2018-05-14T17:57:10.017Z,16.10
2018-05-14T17:59:37.613Z,16.10
2018-05-14T18:02:05.179Z,16.10
2018-05-14T18:04:33.542Z,16.00
2018-05-14T18:07:01.167Z,16.00
2018-05-14T18:09:28.778Z,16.00
2018-05-14T18:11:57.167Z,16.00
2018-05-14T18:14:25.566Z,16.00
2018-05-14T18:16:53.158Z,15.90
2018-05-14T18:19:20.731Z,16.00
2018-05-14T18:21:48.352Z,15.90
2018-05-14T18:24:15.947Z,15.90
2018-05-14T18:26:46.362Z,15.90
2018-05-14T18:29:19.720Z,15.90
2018-05-14T18:31:52.939Z,15.80
2018-05-14T18:34:20.546Z,15.80
2018-05-14T18:36:48.127Z,15.80
2018-05-14T18:39:15.815Z,15.70
2018-05-14T18:41:43.390Z,15.70
2018-05-14T18:44:14.152Z,15.70
2018-05-14T18:46:41.993Z,15.70
2018-05-14T18:49:10.370Z,15.70
2018-05-14T18:51:37.969Z,15.60
2018-05-14T18:54:05.558Z,15.70
2018-05-14T18:56:33.277Z,15.60
2018-05-14T18:59:01.642Z,15.60
2018-05-14T19:01:29.218Z,15.60
2018-05-14T19:03:57.606Z,15.60
2018-05-14T19:06:25.968Z,15.50
2018-05-14T19:08:54.342Z,15.50
2018-05-14T19:11:27.716Z,15.40
2018-05-14T19:13:56.076Z,15.50
2018-05-14T19:16:29.227Z,15.40
2018-05-14T19:18:56.858Z,15.40
2018-05-14T19:21:25.273Z,15.40
2018-05-14T19:23:53.695Z,15.40
2018-05-14T19:26:22.054Z,15.30
2018-05-14T19:28:55.342Z,15.30
2018-05-14T19:31:22.934Z,15.30
2018-05-14T19:33:56.866Z,15.30
2018-05-14T19:36:25.226Z,15.30
2018-05-14T19:38:52.820Z,15.30
2018-05-14T19:41:20.456Z,15.30
2018-05-14T19:43:48.098Z,15.20
2018-05-14T19:46:15.696Z,15.30
2018-05-14T19:48:43.307Z,15.30
2018-05-14T19:51:10.939Z,15.20
2018-05-14T19:53:38.533Z,15.20
2018-05-14T19:56:06.102Z,15.20
2018-05-14T19:58:33.706Z,15.20
2018-05-14T20:01:01.291Z,15.20
2018-05-14T20:03:29.780Z,15.20
2018-05-14T20:05:57.314Z,15.20
2018-05-14T20:08:24.946Z,15.20
2018-05-14T20:10:52.512Z,15.20
2018-05-14T20:13:20.107Z,15.20
2018-05-14T20:15:48.439Z,15.20
2018-05-14T20:18:16.072Z,15.10
2018-05-14T20:20:43.663Z,15.20
2018-05-14T20:23:11.305Z,15.20
2018-05-14T20:25:38.874Z,15.10
2018-05-14T20:28:06.463Z,15.10
2018-05-14T20:30:34.091Z,15.10
2018-05-14T20:33:01.662Z,15.10
2018-05-14T20:35:29.259Z,15.10
2018-05-14T20:38:00.426Z,15.10
2018-05-14T20:40:28.254Z,15.10
2018-05-14T20:42:55.882Z,15.20
2018-05-14T20:45:23.510Z,15.10
2018-05-14T20:47:51.115Z,15.10
2018-05-14T20:50:19.454Z,15.10
2018-05-14T20:52:47.088Z,15.10
2018-05-14T20:55:15.450Z,15.10
2018-05-14T20:57:43.043Z,15.10
2018-05-14T21:00:10.619Z,15.10
2018-05-14T21:02:39.030Z,15.10
2018-05-14T21:05:06.625Z,15.10
2018-05-14T21:07:34.218Z,15.10
2018-05-14T21:10:01.843Z,15.10
2018-05-14T21:12:30.183Z,15.10
2018-05-14T21:14:57.776Z,15.00
2018-05-14T21:17:26.106Z,15.10
2018-05-14T21:19:54.462Z,15.10
2018-05-14T21:22:22.030Z,15.00
2018-05-14T21:24:49.623Z,15.10
2018-05-14T21:27:17.208Z,15.10
2018-05-14T21:29:44.803Z,15.10
2018-05-14T21:32:12.366Z,15.10
2018-05-14T21:34:40.033Z,15.10
2018-05-14T21:37:07.594Z,15.10
2018-05-14T21:39:35.190Z,15.10
2018-05-14T21:42:02.806Z,15.10
2018-05-14T21:44:30.370Z,15.10
2018-05-14T21:46:57.974Z,15.10
2018-05-14T21:49:25.547Z,15.10
2018-05-14T21:51:53.152Z,15.10
2018-05-14T21:54:20.846Z,15.10
2018-05-14T21:56:48.453Z,15.10
2018-05-14T21:59:16.838Z,15.10
2018-05-14T22:01:45.166Z,15.10
2018-05-14T22:04:12.787Z,15.10
2018-05-14T22:06:40.423Z,15.10
2018-05-14T22:09:08.783Z,15.10
2018-05-14T22:11:36.394Z,15.10
2018-05-14T22:14:03.986Z,15.10
2018-05-14T22:16:31.679Z,15.10
2018-05-14T22:18:59.293Z,15.00
2018-05-14T22:21:26.882Z,15.00
2018-05-14T22:23:54.486Z,15.00
2018-05-14T22:26:22.850Z,15.00
2018-05-14T22:28:50.425Z,14.90
2018-05-14T22:31:18.827Z,14.90
2018-05-14T22:33:46.418Z,14.90
2018-05-14T22:36:14.006Z,14.90
2018-05-14T22:38:41.658Z,14.90
2018-05-14T22:41:09.230Z,14.80
2018-05-14T22:43:36.821Z,14.80
2018-05-14T22:46:05.204Z,14.80
2018-05-14T22:48:32.798Z,14.80
2018-05-14T22:51:00.382Z,14.80
2018-05-14T22:53:27.950Z,14.80
2018-05-14T22:55:55.559Z,14.80
2018-05-14T22:58:23.126Z,14.80
2018-05-14T23:00:50.685Z,14.80
2018-05-14T23:03:18.270Z,14.80
2018-05-14T23:05:45.854Z,14.80
2018-05-14T23:08:13.438Z,14.80
2018-05-14T23:10:41.762Z,14.70
2018-05-14T23:13:09.377Z,14.70
2018-05-14T23:15:37.749Z,14.80
2018-05-14T23:18:05.333Z,14.70
2018-05-14T23:20:32.961Z,14.70
2018-05-14T23:23:00.545Z,14.70
2018-05-14T23:25:28.866Z,14.60
2018-05-14T23:27:56.482Z,14.60
2018-05-14T23:30:24.858Z,14.60
2018-05-14T23:32:53.205Z,14.60
2018-05-14T23:35:20.833Z,14.60
2018-05-14T23:37:48.418Z,14.60
2018-05-14T23:40:16.005Z,14.60
2018-05-14T23:42:43.622Z,14.60
2018-05-14T23:45:11.211Z,14.50
2018-05-14T23:47:38.822Z,14.50
2018-05-14T23:50:06.383Z,14.50
2018-05-14T23:52:34.739Z,14.40
2018-05-14T23:55:02.339Z,14.40
2018-05-14T23:57:30.662Z,14.40
2018-05-14T23:59:58.278Z,14.40
